Time;durP1;ratioP1;P1;durP2;ratioP2;P2;SDS_P1;SDS_P2;PMS_P1;PMS_P2;Temp;Humidity;BMP_temperature;BMP_pressure;BME280_temperature;BME280_humidity;BME280_pressure;Samples;Min_cycle;Max_cycle;Signal;HPM_P1;HPM_P2
2023/03/20 00:00:56;;;;;;;0.50;0.38;;;;;;;16.46;50.70;96902.47;10387732;28;20478;-34
2023/03/20 00:05:57;;;;;;;1.00;0.47;;;;;;;16.45;49.90;96905.81;10390382;28;20048;-33
2023/03/20 00:10:57;;;;;;;1.67;0.30;;;;;;;16.45;50.11;96907.53;10385503;28;20037;-33
2023/03/20 00:15:58;;;;;;;0.93;0.40;;;;;;;16.43;49.97;96904.97;10391841;28;20395;-31
2023/03/20 00:20:58;;;;;;;0.60;0.50;;;;;;;16.45;50.38;96903.31;10390258;28;20045;-34
2023/03/20 00:25:58;;;;;;;1.37;0.40;;;;;;;16.47;49.59;96910.91;10381374;28;20333;-33
2023/03/20 00:30:59;;;;;;;0.97;0.40;;;;;;;16.46;49.84;96910.06;10395311;28;20456;-34
2023/03/20 00:35:59;;;;;;;1.07;0.50;;;;;;;16.46;49.59;96917.63;10385165;28;20041;-33
2023/03/20 00:41:00;;;;;;;0.35;0.28;;;;;;;16.46;49.89;96920.16;10383004;28;20449;-33
2023/03/20 00:46:01;;;;;;;0.50;0.32;;;;;;;16.38;49.89;96904.06;10398515;28;20525;-34
2023/03/20 00:51:01;;;;;;;3.63;0.77;;;;;;;16.58;58.72;96922.84;10396533;28;20044;-32
2023/03/20 00:56:03;;;;;;;2.15;0.90;;;;;;;16.63;59.65;96920.34;10382553;28;20061;-33
2023/03/20 01:01:03;;;;;;;0.75;0.40;;;;;;;16.57;55.10;96918.63;10392865;28;20041;-33
2023/03/20 01:06:04;;;;;;;1.85;0.70;;;;;;;16.53;50.89;96929.50;10393505;28;20037;-34
2023/03/20 01:11:05;;;;;;;1.25;0.70;;;;;;;16.51;50.79;96921.06;10390905;28;20033;-34
2023/03/20 01:16:16;;;;;;;1.88;0.35;;;;;;;16.49;50.61;96920.22;10392813;28;20128;-34
2023/03/20 01:21:17;;;;;;;0.85;0.35;;;;;;;16.49;50.47;96917.69;10384927;28;20079;-33
2023/03/20 01:26:42;;;;;;;0.98;0.57;;;;;;;16.48;49.95;96927.75;10395688;28;20503;-33
2023/03/20 01:31:42;;;;;;;0.57;0.50;;;;;;;16.47;49.78;96913.44;10398525;28;20057;-33
2023/03/20 01:36:49;;;;;;;0.65;0.32;;;;;;;16.46;50.08;96927.75;10399169;28;20030;-34
2023/03/20 01:41:51;;;;;;;;;;;;;;;16.43;49.93;96925.19;10392081;28;20041;-35
2023/03/20 01:46:52;;;;;;;0.85;0.38;;;;;;;16.44;49.90;96926.06;10414789;28;20003;-34
2023/03/20 01:51:55;;;;;;;2.22;0.50;;;;;;;16.45;49.92;96935.31;10390705;28;20572;-34
2023/03/20 01:57:03;;;;;;;2.28;0.40;;;;;;;16.46;49.85;96927.75;10386732;28;20029;-31
2023/03/20 02:02:05;;;;;;;0.88;0.40;;;;;;;16.47;49.34;96916.81;10393940;28;20581;-34
2023/03/20 02:07:08;;;;;;;1.70;0.50;;;;;;;16.46;51.99;96920.16;10394807;28;20034;-31
2023/03/20 02:12:14;;;;;;;5.65;1.30;;;;;;;16.59;58.23;96932.09;10395725;28;20041;-34
2023/03/20 02:17:15;;;;;;;2.45;0.80;;;;;;;16.61;59.31;96930.44;10395069;28;20033;-33
2023/03/20 02:22:53;;;;;;;1.05;0.55;;;;;;;16.57;52.37;96935.44;10386272;28;20026;-34
2023/03/20 02:28:27;;;;;;;0.65;0.30;;;;;;;16.50;50.18;96937.06;10388731;28;20033;-34
2023/03/20 02:33:43;;;;;;;1.48;0.40;;;;;;;16.49;50.59;96935.38;10387135;28;20040;-33
2023/03/20 02:39:01;;;;;;;1.70;0.50;;;;;;;16.50;50.19;96941.25;10393078;28;20061;-33
2023/03/20 02:44:11;;;;;;;0.73;0.40;;;;;;;16.51;50.18;96943.81;10398858;28;20512;-33
2023/03/20 02:49:57;;;;;;;1.20;0.32;;;;;;;16.51;50.19;96945.47;10392754;28;20032;-33
2023/03/20 02:55:09;;;;;;;2.47;0.55;;;;;;;16.50;49.86;96951.38;10406353;28;20047;-33
2023/03/20 03:00:19;;;;;;;1.17;0.65;;;;;;;16.47;49.52;96952.22;10396455;28;20552;-31
2023/03/20 03:05:26;;;;;;;2.25;0.45;;;;;;;16.44;49.64;96951.31;10391485;28;20033;-37
2023/03/20 03:10:30;;;;;;;0.40;0.33;;;;;;;16.46;50.05;96965.63;10402711;28;20392;-34
2023/03/20 03:15:38;;;;;;;1.35;0.60;;;;;;;16.44;49.67;96952.16;10395832;28;20049;-34
2023/03/20 03:20:39;;;;;;;0.60;0.30;;;;;;;16.49;50.12;96955.59;10381254;28;20127;-34
2023/03/20 03:25:40;;;;;;;1.30;0.52;;;;;;;16.48;50.84;96953.03;10390908;28;20065;-33
2023/03/20 03:30:44;;;;;;;2.55;1.08;;;;;;;16.60;59.24;96973.41;10389995;28;20103;-34
2023/03/20 03:35:45;;;;;;;4.55;0.77;;;;;;;16.62;58.87;96975.09;10388296;28;20045;-33
2023/03/20 03:41:05;;;;;;;1.48;0.57;;;;;;;16.60;53.29;96981.81;10396816;28;20498;-33
2023/03/20 03:46:18;;;;;;;0.80;0.50;;;;;;;16.52;50.60;96970.78;10386083;28;20048;-33
2023/03/20 03:51:25;;;;;;;0.40;0.40;;;;;;;16.52;50.54;96990.16;10386141;28;20124;-34
2023/03/20 03:56:41;;;;;;;1.25;0.40;;;;;;;16.50;49.84;96981.69;10391063;28;20037;-33
2023/03/20 04:01:43;;;;;;;1.40;0.43;;;;;;;16.47;50.47;96982.53;10398726;28;20041;-34
2023/03/20 04:06:43;;;;;;;1.27;0.77;;;;;;;16.54;50.65;96978.38;10395070;28;20099;-34
2023/03/20 04:11:49;;;;;;;0.43;0.30;;;;;;;16.56;50.24;96975.06;10391575;28;20567;-33
2023/03/20 04:16:50;;;;;;;0.70;0.47;;;;;;;16.56;50.26;96970.00;10392418;28;20040;-36
2023/03/20 04:21:50;;;;;;;0.67;0.40;;;;;;;16.55;50.02;96968.28;10396022;28;20060;-33
2023/03/20 04:26:51;;;;;;;1.42;0.45;;;;;;;16.54;50.50;96968.28;10380033;28;20176;-32
2023/03/20 04:31:52;;;;;;;0.45;0.28;;;;;;;16.55;50.10;96960.69;10392930;28;20578;-31
2023/03/20 04:37:11;;;;;;;0.30;0.30;;;;;;;16.58;50.31;96965.81;10387381;28;20049;-34
2023/03/20 04:42:23;;;;;;;0.82;0.57;;;;;;;16.58;50.38;96970.84;10387996;28;20025;-34
2023/03/20 04:47:29;;;;;;;2.97;1.30;;;;;;;16.63;56.00;96975.97;10387342;28;20129;-35
2023/03/20 04:52:30;;;;;;;1.15;0.40;;;;;;;16.63;58.82;96984.38;10387084;28;20033;-33
2023/03/20 04:57:30;;;;;;;0.90;0.50;;;;;;;16.66;58.26;96991.16;10384864;28;20025;-34
2023/03/20 05:02:34;;;;;;;1.35;0.30;;;;;;;16.66;52.43;96992.00;10392322;28;20029;-33
2023/03/20 05:07:34;;;;;;;1.05;0.40;;;;;;;16.67;52.86;97000.44;10386594;28;20410;-33
2023/03/20 05:12:39;;;;;;;1.27;0.55;;;;;;;16.69;52.20;96994.56;10385979;28;20455;-33
2023/03/20 05:17:57;;;;;;;3.60;0.47;;;;;;;16.69;53.16;96979.41;10389834;28;20040;-33
2023/03/20 05:23:23;;;;;;;0.83;0.60;;;;;;;16.70;52.37;96973.50;10376793;28;20116;-36
2023/03/20 05:28:29;;;;;;;2.25;1.00;;;;;;;16.72;52.90;96992.09;10375069;28;20057;-35
2023/03/20 05:33:59;;;;;;;3.47;0.50;;;;;;;16.60;52.98;96984.34;10371407;28;20492;-32
2023/03/20 05:39:15;;;;;;;2.75;1.75;;;;;;;16.73;52.50;97001.38;10392908;28;20055;-34
2023/03/20 05:44:37;;;;;;;1.48;0.30;;;;;;;16.71;51.09;97003.00;10391976;28;20044;-33
2023/03/20 05:49:47;;;;;;;2.30;0.70;;;;;;;16.70;51.01;97008.91;10381057;28;20041;-33
2023/03/20 05:55:06;;;;;;;5.35;0.77;;;;;;;16.65;51.12;97013.06;10388979;28;20038;-33
2023/03/20 06:00:34;;;;;;;5.60;0.80;;;;;;;16.66;51.28;97019.81;10383314;28;20038;-35
2023/03/20 06:05:55;;;;;;;4.00;0.77;;;;;;;16.64;53.08;97021.50;10394050;28;20033;-33
2023/03/20 06:10:55;;;;;;;11.63;1.08;;;;;;;16.76;56.72;97014.03;10397198;28;20041;-33
2023/03/20 06:15:56;;;;;;;7.78;1.63;;;;;;;16.78;57.15;97014.88;10382617;28;20093;-35
2023/03/20 06:20:57;;;;;;;5.82;1.00;;;;;;;16.67;52.69;97017.28;10396519;28;20048;-34
2023/03/20 06:26:02;;;;;;;6.15;1.20;;;;;;;16.20;53.86;97019.19;10385817;28;20030;-34
2023/03/20 06:31:08;;;;;;;7.78;1.08;;;;;;;16.24;53.44;97016.72;10382532;28;20040;-34
2023/03/20 06:36:09;;;;;;;5.57;0.80;;;;;;;16.42;54.79;97021.19;10384137;28;20780;-33
2023/03/20 06:41:10;;;;;;;6.70;0.90;;;;;;;16.47;54.06;97027.16;10389460;28;20033;-34
2023/03/20 06:46:12;;;;;;;6.30;1.38;;;;;;;16.51;52.63;97039.84;10393232;28;20025;-33
2023/03/20 06:51:12;;;;;;;2.45;1.13;;;;;;;16.53;52.03;97038.19;10384268;28;20030;-33
2023/03/20 06:56:22;;;;;;;9.35;1.25;;;;;;;16.52;51.17;97039.00;10391711;28;20065;-33
2023/03/20 07:01:23;;;;;;;6.93;0.80;;;;;;;16.51;50.62;97029.75;10400331;28;20067;-34
2023/03/20 07:06:23;;;;;;;8.02;0.80;;;;;;;16.50;50.64;97037.28;10399265;28;20095;-32
2023/03/20 07:11:25;;;;;;;4.20;0.80;;;;;;;16.51;50.70;97055.00;10393939;28;20042;-34
2023/03/20 07:16:28;;;;;;;2.00;0.52;;;;;;;16.51;50.16;97047.44;10405053;28;20510;-32
2023/03/20 07:21:29;;;;;;;2.92;0.65;;;;;;;16.51;50.18;97046.56;10393990;28;20121;-33
2023/03/20 07:26:29;;;;;;;7.68;1.50;;;;;;;16.57;57.21;97060.16;10392635;28;20033;-33
2023/03/20 07:31:31;;;;;;;8.18;1.60;;;;;;;16.60;57.68;97069.47;10387033;28;20036;-33
2023/03/20 07:36:44;;;;;;;2.83;0.70;;;;;;;16.63;57.02;97074.53;10389741;28;20099;-33
2023/03/20 07:41:47;;;;;;;3.00;0.75;;;;;;;16.54;52.29;97080.31;10399930;28;20037;-33
2023/03/20 07:46:58;;;;;;;0.95;0.50;;;;;;;16.55;50.76;97092.13;10396045;28;20067;-33
2023/03/20 07:51:59;;;;;;;1.07;0.67;;;;;;;16.51;50.57;97095.44;10386396;28;20042;-34
2023/03/20 07:56:59;;;;;;;1.17;0.35;;;;;;;16.50;50.66;97088.69;10382687;28;20108;-33
2023/03/20 08:02:00;;;;;;;0.40;0.40;;;;;;;16.38;50.16;97078.41;10393251;28;20044;-34
2023/03/20 08:07:00;;;;;;;0.47;0.30;;;;;;;16.45;50.41;97087.78;10393783;28;20038;-33
2023/03/20 08:12:01;;;;;;;2.57;0.50;;;;;;;16.46;50.20;97084.41;10386962;28;20300;-33
2023/03/20 08:17:01;;;;;;;2.38;2.00;;;;;;;16.45;50.08;97080.19;10393059;28;20299;-34
2023/03/20 08:22:01;;;;;;;2.87;0.60;;;;;;;16.45;50.19;97090.31;10394927;28;20038;-33
2023/03/20 08:27:02;;;;;;;2.47;0.73;;;;;;;16.45;50.23;97089.47;10394322;28;20320;-34
2023/03/20 08:32:02;;;;;;;0.93;0.43;;;;;;;16.44;49.71;97090.31;10386755;28;20031;-34
2023/03/20 08:37:03;;;;;;;2.70;0.50;;;;;;;16.42;49.67;97087.75;10390853;28;20037;-34
2023/03/20 08:42:05;;;;;;;1.77;0.50;;;;;;;16.42;49.67;97085.22;10385052;28;20292;-34
2023/03/20 08:47:06;;;;;;;3.80;0.70;;;;;;;16.55;57.86;97083.72;10389342;28;20485;-33
2023/03/20 08:52:07;;;;;;;0.88;0.70;;;;;;;16.61;58.08;97082.09;10393943;28;20037;-33
2023/03/20 08:57:07;;;;;;;2.63;0.90;;;;;;;16.62;57.56;97073.69;10385315;28;20033;-38
2023/03/20 09:02:10;;;;;;;1.10;0.37;;;;;;;16.52;52.59;97071.88;10391543;28;20033;-38
2023/03/20 09:07:10;;;;;;;1.38;0.50;;;;;;;16.46;51.01;97071.78;10383100;28;20041;-34
2023/03/20 09:12:11;;;;;;;0.85;0.43;;;;;;;16.45;50.59;97079.38;10384873;28;20046;-34
2023/03/20 09:17:11;;;;;;;0.80;0.70;;;;;;;16.43;50.17;97070.88;10390749;28;20124;-34
2023/03/20 09:22:13;;;;;;;1.00;0.30;;;;;;;16.42;50.44;97067.53;10391171;28;20444;-33
2023/03/20 09:27:14;;;;;;;1.23;0.40;;;;;;;16.41;50.24;97088.56;10389727;28;20062;-34
2023/03/20 09:32:15;;;;;;;0.70;0.40;;;;;;;16.42;49.96;97090.28;10389086;28;20033;-33
2023/03/20 09:37:15;;;;;;;1.20;0.60;;;;;;;16.40;49.73;97086.88;10392508;28;20041;-34
2023/03/20 09:42:40;;;;;;;1.70;0.43;;;;;;;16.39;49.65;97087.72;10383716;28;20091;-34
2023/03/20 09:48:11;;;;;;;0.65;0.30;;;;;;;16.37;49.58;97096.09;10390370;28;20033;-34
2023/03/20 09:53:16;;;;;;;0.40;0.30;;;;;;;16.32;49.68;97082.50;10396509;28;20512;-33
2023/03/20 09:58:32;;;;;;;0.50;0.30;;;;;;;16.37;49.49;97091.03;10401552;28;20045;-34
2023/03/20 10:03:43;;;;;;;1.20;0.40;;;;;;;16.41;52.22;97091.09;10388744;28;20022;-36
2023/03/20 10:08:45;;;;;;;1.00;0.50;;;;;;;16.57;56.41;97085.44;10391741;28;20068;-33
2023/03/20 10:14:10;;;;;;;3.10;0.70;;;;;;;16.63;58.25;97087.19;10395645;28;20116;-32
2023/03/20 10:19:36;;;;;;;1.08;0.40;;;;;;;16.58;54.68;97087.13;10392946;28;20029;-33
2023/03/20 10:25:06;;;;;;;0.40;0.35;;;;;;;16.46;51.51;97086.94;10387667;28;20080;-34
2023/03/20 10:30:12;;;;;;;0.70;0.30;;;;;;;16.42;50.88;97095.31;10400638;28;20025;-33
2023/03/20 10:35:22;;;;;;;0.73;0.32;;;;;;;16.34;50.34;97079.19;10395949;28;20034;-33
2023/03/20 10:40:28;;;;;;;1.88;0.50;;;;;;;16.38;50.11;97098.63;10392509;28;20077;-33
2023/03/20 10:45:31;;;;;;;0.43;0.30;;;;;;;16.37;50.22;97106.19;10397211;28;20402;-33
2023/03/20 10:50:38;;;;;;;0.70;0.30;;;;;;;16.37;50.06;97117.13;10381287;28;20044;-34
2023/03/20 10:55:42;;;;;;;0.20;0.20;;;;;;;16.37;50.08;97107.03;10383933;28;20042;-33
2023/03/20 11:00:43;;;;;;;0.40;0.40;;;;;;;16.35;49.83;97103.59;10394623;28;20104;-33
2023/03/20 11:05:44;;;;;;;0.60;0.32;;;;;;;16.34;49.79;97096.88;10398149;28;20564;-35
2023/03/20 11:10:45;;;;;;;0.95;0.20;;;;;;;16.35;49.14;97097.72;10388175;28;20099;-33
2023/03/20 11:15:45;;;;;;;0.45;0.30;;;;;;;16.34;49.69;97096.88;10392072;28;20044;-33
2023/03/20 11:20:56;;;;;;;0.55;0.38;;;;;;;16.35;50.04;97090.97;10395828;28;20022;-33
2023/03/20 11:26:00;;;;;;;1.02;0.57;;;;;;;16.52;54.20;97078.63;10385401;28;20080;-33
2023/03/20 11:31:09;;;;;;;0.90;0.70;;;;;;;16.63;56.41;97085.50;10397191;28;20511;-35
2023/03/20 11:36:20;;;;;;;0.50;0.40;;;;;;;16.64;55.37;97087.22;10393811;28;20042;-34
2023/03/20 11:41:26;;;;;;;0.98;0.35;;;;;;;16.57;50.47;97084.56;10387256;28;20033;-35
2023/03/20 11:46:27;;;;;;;6.93;0.70;;;;;;;16.53;50.84;97078.63;10378072;28;20091;-33
2023/03/20 11:51:27;;;;;;;11.13;1.23;;;;;;;16.51;51.79;97074.38;10397711;28;20287;-33
2023/03/20 11:56:32;;;;;;;3.47;0.52;;;;;;;16.50;50.20;97073.53;10392853;28;20033;-33
2023/03/20 12:01:45;;;;;;;1.00;0.50;;;;;;;16.52;49.86;97066.81;10385976;28;20055;-33
2023/03/20 12:06:53;;;;;;;1.90;0.40;;;;;;;16.54;49.76;97064.31;10385701;28;20038;-33
2023/03/20 12:11:58;;;;;;;1.08;0.65;;;;;;;16.56;49.98;97066.03;10388962;28;20026;-34
2023/03/20 12:17:12;;;;;;;3.65;0.55;;;;;;;16.60;49.89;97069.47;10392444;28;20033;-33
2023/03/20 12:22:31;;;;;;;2.78;0.82;;;;;;;16.58;49.71;97054.28;10388200;28;20025;-34
2023/03/20 12:27:37;;;;;;;2.47;0.40;;;;;;;16.57;49.85;97052.56;10385477;28;20044;-34
2023/03/20 12:32:52;;;;;;;3.13;0.60;;;;;;;16.56;49.74;97039.91;10372255;28;20049;-34
2023/03/20 12:37:53;;;;;;;1.33;0.45;;;;;;;16.54;49.77;97039.88;10391190;28;20026;-33
2023/03/20 12:43:04;;;;;;;5.03;1.10;;;;;;;16.54;50.10;97032.28;10394722;28;20034;-34
2023/03/20 12:48:32;;;;;;;4.15;0.90;;;;;;;16.73;53.75;97044.34;10384658;28;20416;-34
2023/03/20 12:53:47;;;;;;;3.47;0.90;;;;;;;16.80;56.02;97024.19;10386988;28;20026;-33
2023/03/20 12:59:11;;;;;;;2.90;0.63;;;;;;;16.69;52.73;97012.25;10378837;28;20053;-33
2023/03/20 13:04:30;;;;;;;1.83;0.65;;;;;;;16.60;50.39;97004.56;10391623;28;20507;-34
2023/03/20 13:09:56;;;;;;;4.75;0.80;;;;;;;16.55;50.45;97006.19;10384558;28;20126;-32
2023/03/20 13:15:08;;;;;;;3.08;0.60;;;;;;;16.51;50.59;97001.94;10380815;28;20030;-34
2023/03/20 13:20:26;;;;;;;6.25;0.70;;;;;;;16.51;49.93;96999.41;10392411;28;20038;-34
2023/03/20 13:25:52;;;;;;;2.35;0.55;;;;;;;16.48;50.04;96979.16;10393367;28;20086;-33
2023/03/20 13:31:01;;;;;;;2.63;0.50;;;;;;;16.46;49.58;96975.75;10391892;28;20064;-34
2023/03/20 13:36:17;;;;;;;3.33;0.50;;;;;;;16.44;49.67;96967.31;10389139;28;20065;-33
2023/03/20 13:41:17;;;;;;;3.83;0.50;;;;;;;16.45;49.47;96963.94;10385360;28;20045;-34
2023/03/20 13:46:23;;;;;;;1.40;0.40;;;;;;;16.46;49.51;96969.88;10389927;28;20489;-33
2023/03/20 13:51:31;;;;;;;0.80;0.32;;;;;;;16.44;49.35;96969.84;10388295;28;20292;-33
2023/03/20 13:56:56;;;;;;;0.80;0.52;;;;;;;16.43;49.84;96970.66;10387465;28;20224;-33
2023/03/20 14:02:35;;;;;;;5.22;0.95;;;;;;;16.45;52.09;96974.06;10380935;28;20061;-33
2023/03/20 14:07:37;;;;;;;3.92;0.88;;;;;;;16.66;55.55;96971.78;10378573;28;20156;-33
2023/03/20 14:12:38;;;;;;;12.30;1.65;;;;;;;16.74;56.25;96962.63;10380490;28;20049;-33
2023/03/20 14:17:43;;;;;;;6.03;1.40;;;;;;;16.64;52.80;96963.34;10384899;28;20049;-33
2023/03/20 14:22:45;;;;;;;5.15;0.70;;;;;;;16.57;50.45;96964.09;10388351;28;20280;-34
2023/03/20 14:27:56;;;;;;;6.88;0.77;;;;;;;16.53;50.03;96959.00;10389871;28;20211;-33
2023/03/20 14:33:14;;;;;;;2.67;0.70;;;;;;;16.50;50.23;96962.34;10389075;28;20037;-34
2023/03/20 14:38:34;;;;;;;1.23;0.45;;;;;;;16.52;49.79;96959.84;10396520;28;20091;-34
2023/03/20 14:43:51;;;;;;;1.25;0.50;;;;;;;16.51;49.95;96958.97;10395237;28;20050;-34
2023/03/20 14:48:55;;;;;;;1.17;0.50;;;;;;;16.51;49.77;96953.91;10390270;28;20038;-34
2023/03/20 14:53:57;;;;;;;9.65;1.20;;;;;;;16.49;50.59;96950.53;10393663;28;20030;-33
2023/03/20 14:59:05;;;;;;;1.27;0.60;;;;;;;16.43;49.51;96950.47;10395852;28;20064;-34
2023/03/20 15:04:14;;;;;;;6.10;0.90;;;;;;;16.45;48.62;96953.84;10388034;28;20112;-35
2023/03/20 15:09:15;;;;;;;4.40;1.05;;;;;;;16.47;48.41;96946.28;10386286;28;20387;-34
2023/03/20 15:14:21;;;;;;;3.58;1.00;;;;;;;16.43;48.39;96940.34;10394780;28;20041;-33
2023/03/20 15:19:21;;;;;;;3.53;1.83;;;;;;;16.45;49.11;96933.63;10395269;28;20040;-34
2023/03/20 15:24:24;;;;;;;2.80;1.27;;;;;;;16.61;52.12;96935.50;10389106;28;20037;-33
2023/03/20 15:29:26;;;;;;;7.28;1.15;;;;;;;16.70;52.99;96933.06;10392651;28;20037;-34
2023/03/20 15:34:31;;;;;;;6.05;1.40;;;;;;;16.65;50.27;96937.25;10393551;28;20080;-33
2023/03/20 15:39:41;;;;;;;4.35;1.35;;;;;;;16.59;49.38;96942.22;10394463;28;20025;-37
2023/03/20 15:44:46;;;;;;;9.80;2.90;;;;;;;16.49;48.30;96940.44;10387427;28;20034;-34
2023/03/20 15:49:51;;;;;;;9.50;2.80;;;;;;;16.44;48.70;96934.47;10392205;28;20026;-33
2023/03/20 15:54:53;;;;;;;15.30;3.45;;;;;;;16.54;49.46;96922.78;10396506;28;20034;-34
2023/03/20 15:59:55;;;;;;;14.27;3.05;;;;;;;16.53;49.68;96921.94;10392966;28;20041;-34
2023/03/20 16:04:55;;;;;;;8.20;2.78;;;;;;;16.48;49.91;96913.47;10384085;28;20039;-33
2023/03/20 16:09:59;;;;;;;10.90;2.47;;;;;;;16.52;50.09;96917.72;10388869;28;20046;-33
2023/03/20 16:15:00;;;;;;;11.95;2.20;;;;;;;16.54;51.62;96913.50;10384804;28;20041;-34
2023/03/20 16:20:01;;;;;;;6.13;2.20;;;;;;;16.57;51.37;96908.50;10391840;28;20460;-34
2023/03/20 16:25:02;;;;;;;12.95;3.42;;;;;;;16.59;52.49;96886.63;10395292;28;20029;-34
2023/03/20 16:30:15;;;;;;;6.43;1.75;;;;;;;16.76;52.93;96895.22;10389549;28;20432;-33
2023/03/20 16:35:19;;;;;;;9.13;1.90;;;;;;;16.87;53.31;96899.53;10398745;28;20045;-34
2023/03/20 16:40:22;;;;;;;6.65;1.65;;;;;;;16.91;54.09;96897.88;10384632;28;20039;-34
2023/03/20 16:45:25;;;;;;;14.65;1.95;;;;;;;16.85;51.18;96890.22;10390376;28;20108;-34
2023/03/20 16:50:34;;;;;;;11.20;1.50;;;;;;;16.82;49.97;96890.22;10394668;28;20033;-36
2023/03/20 16:55:40;;;;;;;10.57;1.55;;;;;;;16.95;50.15;96902.13;10382395;28;20029;-35
2023/03/20 17:01:02;;;;;;;9.38;1.38;;;;;;;17.05;50.56;96893.75;10376917;28;20054;-33
2023/03/20 17:06:06;;;;;;;5.68;1.70;;;;;;;17.04;50.68;96903.06;10384992;28;20042;-33
2023/03/20 17:11:20;;;;;;;11.70;1.23;;;;;;;17.10;51.59;96899.72;10393597;28;20440;-34
2023/03/20 17:16:21;;;;;;;7.03;1.00;;;;;;;17.21;52.57;96900.66;10389520;28;20087;-34
2023/03/20 17:21:21;;;;;;;3.42;0.82;;;;;;;17.26;53.09;96897.31;10392847;28;20026;-33
2023/03/20 17:26:23;;;;;;;5.57;1.17;;;;;;;17.31;53.39;96897.38;10394896;28;20026;-33
2023/03/20 17:31:23;;;;;;;8.88;1.52;;;;;;;17.35;53.73;96888.94;10389033;28;20064;-33
2023/03/20 17:36:26;;;;;;;7.13;1.30;;;;;;;17.38;53.79;96894.06;10378927;28;20036;-33
2023/03/20 17:41:27;;;;;;;7.78;1.60;;;;;;;17.37;53.84;96899.97;10386768;28;20508;-33
2023/03/20 17:46:30;;;;;;;6.60;1.58;;;;;;;17.37;52.96;96898.28;10378954;28;20044;-33
2023/03/20 17:51:31;;;;;;;9.02;1.50;;;;;;;17.48;53.15;96888.25;10377356;28;20508;-35
2023/03/20 17:56:32;;;;;;;10.35;1.48;;;;;;;17.45;53.36;96895.81;10384132;28;20037;-33
2023/03/20 18:01:32;;;;;;;10.18;1.60;;;;;;;17.56;52.67;96894.22;10381593;28;20030;-35
2023/03/20 18:06:33;;;;;;;8.50;1.23;;;;;;;17.52;53.13;96898.41;10388740;28;20052;-34
2023/03/20 18:11:33;;;;;;;14.60;2.00;;;;;;;17.39;53.29;96926.13;10390178;28;20418;-34
2023/03/20 18:16:34;;;;;;;14.18;1.83;;;;;;;17.31;53.86;96918.44;10385107;28;20029;-33
2023/03/20 18:21:34;;;;;;;4.30;1.10;;;;;;;17.26;53.90;96924.31;10388400;28;20031;-33
2023/03/20 18:26:34;;;;;;;8.17;1.43;;;;;;;17.22;53.97;96927.63;10386034;28;20042;-33
2023/03/20 18:31:35;;;;;;;5.47;1.17;;;;;;;17.20;53.92;96939.44;10381934;28;20288;-33
2023/03/20 18:36:35;;;;;;;7.83;1.30;;;;;;;17.16;54.25;96940.25;10381774;28;20470;-34
2023/03/20 18:41:35;;;;;;;3.60;1.23;;;;;;;17.17;54.22;96940.25;10378770;28;20053;-33
2023/03/20 18:46:36;;;;;;;3.73;1.00;;;;;;;17.14;53.98;96936.88;10401237;28;20303;-34
2023/03/20 18:51:36;;;;;;;5.33;0.97;;;;;;;17.16;54.21;96952.91;10394606;28;20033;-33
2023/03/20 18:56:37;;;;;;;3.07;1.20;;;;;;;17.18;53.90;96951.22;10382135;28;20071;-34
2023/03/20 19:01:37;;;;;;;8.02;1.20;;;;;;;17.16;53.95;96942.78;10396948;28;20044;-34
2023/03/20 19:06:37;;;;;;;8.50;1.27;;;;;;;17.12;54.01;96943.59;10386405;28;20089;-33
2023/03/20 19:11:38;;;;;;;5.00;1.00;;;;;;;17.09;54.00;96941.03;10390195;28;20041;-34
2023/03/20 19:16:40;;;;;;;9.87;1.53;;;;;;;17.10;54.13;96937.66;10380468;28;20042;-34
2023/03/20 19:21:40;;;;;;;7.93;1.02;;;;;;;17.11;54.05;96929.25;10384014;28;20095;-34
2023/03/20 19:26:41;;;;;;;3.67;1.13;;;;;;;17.08;53.53;96930.06;10382345;28;20036;-34
2023/03/20 19:31:41;;;;;;;3.22;1.20;;;;;;;17.04;53.66;96930.00;10386688;28;20038;-34
2023/03/20 19:36:47;;;;;;;9.00;1.63;;;;;;;17.00;53.41;96928.31;10383553;28;20042;-34
2023/03/20 19:41:49;;;;;;;2.03;0.80;;;;;;;16.97;53.41;96918.16;10385223;28;20037;-33
2023/03/20 19:46:49;;;;;;;4.45;1.48;;;;;;;16.99;53.35;96924.09;10383198;28;20121;-33
2023/03/20 19:51:50;;;;;;;7.67;2.10;;;;;;;16.98;53.67;96913.09;10383159;28;20039;-35
2023/03/20 19:56:50;;;;;;;3.92;1.73;;;;;;;17.05;53.03;96924.97;10381082;28;20116;-33
2023/03/20 20:01:52;;;;;;;4.13;0.90;;;;;;;17.04;53.11;96923.28;10389248;28;20044;-34
2023/03/20 20:06:53;;;;;;;6.53;1.38;;;;;;;17.04;53.45;96928.34;10391131;28;20104;-34
2023/03/20 20:11:53;;;;;;;4.53;0.87;;;;;;;17.04;53.21;96927.50;10395444;28;20048;-33
2023/03/20 20:16:54;;;;;;;4.03;0.90;;;;;;;17.01;52.69;96925.81;10392003;28;20044;-33
2023/03/20 20:21:54;;;;;;;7.57;2.15;;;;;;;17.00;54.09;96918.19;10382675;28;20026;-33
2023/03/20 20:26:55;;;;;;;3.63;0.90;;;;;;;17.03;53.32;96920.75;10384075;28;20038;-34
2023/03/20 20:31:57;;;;;;;5.40;1.63;;;;;;;17.05;56.04;96907.28;10393662;28;20164;-33
2023/03/20 20:36:58;;;;;;;9.30;1.70;;;;;;;17.09;56.66;96910.69;10361582;28;20045;-35
2023/03/20 20:41:58;;;;;;;11.63;1.60;;;;;;;17.11;54.04;96906.47;10386366;28;20106;-33
2023/03/20 20:46:58;;;;;;;9.90;1.47;;;;;;;17.08;54.50;96919.09;10389534;28;20029;-33
2023/03/20 20:51:59;;;;;;;4.27;0.90;;;;;;;17.06;53.13;96916.56;10391895;28;20535;-33
2023/03/20 20:57:00;;;;;;;7.55;1.00;;;;;;;17.04;52.98;96918.22;10386626;28;20029;-33
2023/03/20 21:02:00;;;;;;;2.45;1.50;;;;;;;17.03;52.84;96920.75;10388035;28;20375;-34
2023/03/20 21:07:01;;;;;;;11.67;2.07;;;;;;;17.03;54.99;96918.22;10386714;28;20029;-34
2023/03/20 21:12:02;;;;;;;9.30;1.27;;;;;;;17.01;55.23;96922.41;10391160;28;20250;-34
2023/03/20 21:17:04;;;;;;;5.50;1.50;;;;;;;16.97;54.82;96930.78;10382369;28;20038;-38
2023/03/20 21:22:07;;;;;;;2.83;0.90;;;;;;;16.97;55.22;96931.66;10380260;28;20037;-35
2023/03/20 21:27:12;;;;;;;9.77;2.90;;;;;;;16.99;54.90;96919.03;10365738;28;20042;-32
2023/03/20 21:32:16;;;;;;;2.93;1.20;;;;;;;16.99;54.92;96913.97;10367029;28;20057;-34
2023/03/20 21:37:18;;;;;;;6.65;1.60;;;;;;;16.96;55.05;96909.72;10366245;28;20033;-33
2023/03/20 21:42:18;;;;;;;3.92;1.15;;;;;;;16.99;56.34;96913.97;10391849;28;20034;-33
2023/03/20 21:47:20;;;;;;;2.33;1.10;;;;;;;17.00;57.90;96923.25;10386473;28;20472;-34
2023/03/20 21:52:20;;;;;;;8.45;1.85;;;;;;;17.01;58.54;96922.41;10392409;28;20046;-33
2023/03/20 21:57:22;;;;;;;6.78;2.13;;;;;;;16.97;57.45;96928.25;10390256;28;20029;-34
2023/03/20 22:02:22;;;;;;;6.07;1.50;;;;;;;16.93;57.51;96918.97;10396385;28;20029;-34
2023/03/20 22:07:23;;;;;;;5.03;1.23;;;;;;;16.92;57.76;96917.28;10397540;28;20029;-35
2023/03/20 22:12:24;;;;;;;8.20;1.53;;;;;;;16.90;58.36;96908.84;10395184;28;20493;-34
2023/03/20 22:17:26;;;;;;;5.15;1.83;;;;;;;16.88;57.51;96898.69;10391291;28;20315;-33
2023/03/20 22:22:26;;;;;;;8.02;1.83;;;;;;;16.88;57.53;96900.38;10395573;28;20041;-33
2023/03/20 22:27:27;;;;;;;3.70;1.45;;;;;;;16.89;56.82;96897.84;10392526;28;20191;-38
2023/03/20 22:32:27;;;;;;;2.13;0.70;;;;;;;16.91;53.90;96897.88;10399782;28;20045;-34
2023/03/20 22:37:28;;;;;;;3.27;1.03;;;;;;;16.93;56.55;96893.69;10392869;28;20277;-33
2023/03/20 22:42:28;;;;;;;5.07;1.00;;;;;;;16.91;58.32;96886.06;10394980;28;20092;-33
2023/03/20 22:47:29;;;;;;;3.70;1.00;;;;;;;16.88;57.97;96880.13;10393466;28;20058;-34
2023/03/20 22:52:29;;;;;;;2.60;1.52;;;;;;;16.86;57.88;96876.75;10387212;28;20300;-33
2023/03/20 22:57:30;;;;;;;4.10;0.93;;;;;;;16.85;57.92;96880.97;10384628;28;20042;-36
2023/03/20 23:02:30;;;;;;;5.53;1.20;;;;;;;16.90;58.42;96873.44;10392829;28;20030;-35
2023/03/20 23:07:31;;;;;;;3.13;0.80;;;;;;;16.94;58.12;96880.19;10394522;28;20033;-35
2023/03/20 23:12:31;;;;;;;5.80;1.42;;;;;;;16.86;58.05;96872.56;10397411;28;20501;-33
2023/03/20 23:17:32;;;;;;;3.28;0.82;;;;;;;16.82;57.04;96860.69;10393311;28;20462;-33
2023/03/20 23:22:32;;;;;;;3.20;1.37;;;;;;;16.84;57.42;96860.72;10393073;28;20033;-33
2023/03/20 23:27:33;;;;;;;3.25;1.25;;;;;;;16.83;56.99;96861.56;10394321;28;20045;-33
2023/03/20 23:32:38;;;;;;;3.53;0.87;;;;;;;16.84;57.39;96865.78;10390346;28;20042;-33
2023/03/20 23:37:38;;;;;;;4.47;1.08;;;;;;;16.84;56.95;96858.19;10395630;28;20288;-33